Time;durP1;ratioP1;P1;durP2;ratioP2;P2;SDS_P1;SDS_P2;PMS_P1;PMS_P2;Temp;Humidity;BMP_temperature;BMP_pressure;BME280_temperature;BME280_humidity;BME280_pressure;Samples;Min_cycle;Max_cycle;Signal;HPM_P1;HPM_P2
2022/01/16 00:04:05;;;;;;;61.27;25.37;;;-1.20;99.90;;;;;;4985451;28;20433;-58
2022/01/16 00:06:31;;;;;;;48.03;23.83;;;-1.20;99.90;;;;;;4982429;28;20495;-59
2022/01/16 00:08:57;;;;;;;57.63;26.53;;;-1.30;99.90;;;;;;4980221;28;20789;-58
2022/01/16 00:11:23;;;;;;;67.27;26.83;;;-1.20;99.90;;;;;;4981897;28;20666;-58
2022/01/16 00:13:49;;;;;;;62.00;26.13;;;-1.30;99.90;;;;;;4981869;28;20216;-59
2022/01/16 00:16:16;;;;;;;63.50;25.63;;;-1.30;99.90;;;;;;4982797;28;20434;-58
2022/01/16 00:18:49;;;;;;;58.67;26.67;;;-1.30;99.90;;;;;;4985794;28;20672;-59
2022/01/16 00:21:37;;;;;;;68.67;28.13;;;-1.30;99.90;;;;;;4980950;28;20528;-58
2022/01/16 00:24:03;;;;;;;63.00;26.50;;;-1.30;99.90;;;;;;4985787;28;20449;-58
2022/01/16 00:26:29;;;;;;;74.60;27.33;;;-1.20;99.90;;;;;;4986387;28;20453;-58
2022/01/16 00:28:55;;;;;;;65.37;26.83;;;-1.30;99.90;;;;;;4985015;28;20434;-58
2022/01/16 00:31:22;;;;;;;58.63;26.60;;;-1.20;99.90;;;;;;4984730;28;20544;-57
2022/01/16 00:33:48;;;;;;;75.27;28.90;;;-1.20;99.90;;;;;;4987415;28;20191;-58
2022/01/16 00:36:17;;;;;;;68.77;27.07;;;-1.20;99.90;;;;;;4981177;28;20433;-58
2022/01/16 00:38:44;;;;;;;65.50;29.47;;;-1.20;99.90;;;;;;4989825;28;20202;-59
2022/01/16 00:41:15;;;;;;;82.37;27.83;;;-1.20;99.90;;;;;;4987593;28;20797;-58
2022/01/16 00:43:41;;;;;;;72.07;28.40;;;-1.20;99.90;;;;;;4983640;28;21043;-57
2022/01/16 00:46:07;;;;;;;71.60;25.30;;;-1.20;99.90;;;;;;4980949;28;20442;-57
2022/01/16 00:48:33;;;;;;;66.60;25.80;;;-1.20;99.90;;;;;;4987750;28;20461;-58
2022/01/16 00:50:59;;;;;;;71.00;27.80;;;-1.20;99.90;;;;;;4985582;28;20469;-59
2022/01/16 00:53:25;;;;;;;64.93;26.67;;;-1.20;99.90;;;;;;5010637;28;20235;-59
2022/01/16 00:55:51;;;;;;;70.83;25.17;;;-1.20;99.90;;;;;;5007288;28;20462;-62
2022/01/16 00:58:16;;;;;;;66.70;24.63;;;-1.20;99.90;;;;;;4994670;28;20645;-58
2022/01/16 01:00:42;;;;;;;70.00;25.13;;;-1.20;99.90;;;;;;4986575;28;20249;-60
2022/01/16 01:03:08;;;;;;;64.93;25.40;;;-1.20;99.90;;;;;;4991109;28;20678;-59
2022/01/16 01:05:34;;;;;;;59.40;24.40;;;-1.20;99.90;;;;;;4992166;28;20433;-58
2022/01/16 01:08:02;;;;;;;79.80;25.00;;;-1.20;99.90;;;;;;4991296;28;20298;-59
2022/01/16 01:10:32;;;;;;;72.27;26.13;;;-1.20;99.90;;;;;;4992409;28;20844;-58
2022/01/16 01:13:09;;;;;;;64.50;25.73;;;-1.20;99.90;;;;;;4992707;28;20415;-59
2022/01/16 01:15:47;;;;;;;67.93;25.67;;;-1.20;99.90;;;;;;4988969;28;20997;-58
2022/01/16 01:18:14;;;;;;;72.17;25.47;;;-1.20;99.90;;;;;;4989413;28;20985;-58
2022/01/16 01:20:41;;;;;;;73.60;27.60;;;-1.20;99.90;;;;;;4979918;28;20445;-59
2022/01/16 01:23:08;;;;;;;77.73;26.00;;;-1.20;99.90;;;;;;4991936;28;20450;-58
2022/01/16 01:25:34;;;;;;;67.90;26.27;;;-1.10;99.90;;;;;;4992503;28;20500;-59
2022/01/16 01:28:00;;;;;;;73.20;26.73;;;-1.10;99.90;;;;;;4981165;28;20445;-59
2022/01/16 01:30:26;;;;;;;63.23;26.53;;;-1.10;99.90;;;;;;4991846;28;20460;-59
2022/01/16 01:32:54;;;;;;;68.70;28.17;;;-1.10;99.90;;;;;;4991736;28;20179;-59
2022/01/16 01:35:20;;;;;;;76.93;30.23;;;-1.10;99.90;;;;;;4990463;28;20434;-59
2022/01/16 01:37:46;;;;;;;68.83;26.70;;;-1.10;99.90;;;;;;4991724;28;20456;-59
2022/01/16 01:40:16;;;;;;;70.33;27.87;;;-1.00;99.90;;;;;;4991380;28;20781;-59
2022/01/16 01:51:32;;;;;;;73.03;28.60;;;-1.10;99.90;;;;;;4991399;28;20500;-58
2022/01/16 01:53:59;;;;;;;83.83;28.90;;;-1.10;99.90;;;;;;4991922;28;20406;-58
2022/01/16 01:56:26;;;;;;;71.03;27.20;;;-1.10;99.90;;;;;;4991873;28;20399;-59
2022/01/16 01:58:54;;;;;;;69.53;26.43;;;-1.10;99.90;;;;;;4990316;28;20429;-58
2022/01/16 02:01:21;;;;;;;73.50;27.40;;;-1.10;99.90;;;;;;4991890;28;20528;-58
2022/01/16 02:03:48;;;;;;;67.27;27.67;;;-1.10;99.90;;;;;;4989168;28;20426;-59
2022/01/16 02:06:26;;;;;;;59.90;25.10;;;-1.10;99.90;;;;;;4991260;28;20505;-59
2022/01/16 02:09:04;;;;;;;65.13;27.67;;;-1.00;99.90;;;;;;4987395;28;20428;-58
2022/01/16 02:11:32;;;;;;;61.47;27.83;;;-1.00;99.90;;;;;;4988668;28;20423;-58
2022/01/16 02:14:52;;;;;;;68.40;28.53;;;-1.00;99.90;;;;;;4988341;28;20481;-57
2022/01/16 02:28:21;;;;;;;64.07;26.43;;;-1.00;99.90;;;;;;4972107;28;20442;-57
2022/01/16 02:34:29;;;;;;;72.53;26.40;;;-0.90;99.90;;;;;;4986488;28;20434;-57
2022/01/16 02:36:34;;;;;;;72.63;27.57;;;-0.90;99.90;;;;;;4989335;28;20444;-58
2022/01/16 02:39:11;;;;;;;71.90;27.20;;;-0.90;99.90;;;;;;4987390;28;20426;-58
2022/01/16 02:41:37;;;;;;;65.43;28.77;;;-1.00;99.90;;;;;;4978354;28;20433;-58
2022/01/16 02:44:15;;;;;;;75.13;30.70;;;-1.00;99.90;;;;;;4982597;28;20440;-57
2022/01/16 02:46:43;;;;;;;71.63;29.97;;;-0.90;99.90;;;;;;4985488;28;20545;-57
2022/01/16 02:49:20;;;;;;;76.47;28.10;;;-0.90;99.90;;;;;;4987626;28;20429;-57
2022/01/16 02:51:46;;;;;;;70.53;29.27;;;-0.90;99.90;;;;;;4984442;28;20443;-58
2022/01/16 02:54:12;;;;;;;77.37;29.97;;;-1.00;99.90;;;;;;4984904;28;20434;-58
2022/01/16 02:56:39;;;;;;;76.57;31.07;;;-0.90;99.90;;;;;;4981084;28;20468;-58
2022/01/16 02:59:04;;;;;;;67.37;28.77;;;-0.90;99.90;;;;;;4986875;28;20660;-57
2022/01/16 03:01:30;;;;;;;66.43;29.43;;;-0.90;99.90;;;;;;4988565;28;20444;-58
2022/01/16 03:03:55;;;;;;;67.83;29.10;;;-0.90;99.90;;;;;;4984840;28;20179;-58
2022/01/16 03:06:27;;;;;;;65.17;31.37;;;-0.90;99.90;;;;;;4984958;28;20187;-58
2022/01/16 03:08:52;;;;;;;77.57;32.47;;;-0.90;99.90;;;;;;4979920;28;20640;-59
2022/01/16 03:11:34;;;;;;;73.13;32.03;;;-0.90;99.90;;;;;;4989303;28;20472;-60
2022/01/16 03:14:00;;;;;;;67.10;30.33;;;-0.90;99.90;;;;;;4989894;28;20184;-58
2022/01/16 03:16:26;;;;;;;75.90;31.20;;;-0.90;99.90;;;;;;4990097;28;20461;-58
2022/01/16 03:21:54;;;;;;;73.30;29.10;;;-0.90;99.90;;;;;;4990647;28;20185;-58
2022/01/16 03:24:29;;;;;;;68.63;30.83;;;-0.90;99.90;;;;;;4987420;28;20491;-58
2022/01/16 03:27:00;;;;;;;65.03;31.17;;;-0.90;99.90;;;;;;4988655;28;20471;-58
2022/01/16 03:29:27;;;;;;;67.63;30.17;;;-0.90;99.90;;;;;;4988620;28;20468;-59
2022/01/16 03:31:54;;;;;;;65.30;30.23;;;-0.90;99.90;;;;;;4985610;28;20449;-59
2022/01/16 03:34:19;;;;;;;64.73;29.70;;;-0.80;99.90;;;;;;4989277;28;20432;-59
2022/01/16 03:36:45;;;;;;;60.73;28.63;;;-0.90;99.90;;;;;;4990355;28;20434;-59
2022/01/16 03:39:11;;;;;;;69.13;30.43;;;-0.90;99.90;;;;;;4989077;28;20323;-59
2022/01/16 03:41:37;;;;;;;65.97;30.33;;;-0.90;99.90;;;;;;4989752;28;20649;-59
2022/01/16 03:44:05;;;;;;;66.47;30.90;;;-0.90;99.90;;;;;;4989731;28;20175;-59
2022/01/16 03:46:34;;;;;;;67.00;29.47;;;-0.90;99.90;;;;;;4989073;28;20816;-60
2022/01/16 03:49:09;;;;;;;61.27;28.57;;;-0.80;99.90;;;;;;4988698;28;20446;-59
2022/01/16 03:51:35;;;;;;;62.40;29.60;;;-0.90;99.90;;;;;;4983188;28;20823;-58
2022/01/16 03:54:02;;;;;;;67.80;29.53;;;-0.90;99.90;;;;;;4987410;28;20425;-58
2022/01/16 03:56:27;;;;;;;62.87;29.60;;;-0.80;99.90;;;;;;4989354;28;20454;-58
2022/01/16 03:58:53;;;;;;;65.77;28.00;;;-0.80;99.90;;;;;;4988700;28;20470;-59
2022/01/16 04:01:19;;;;;;;59.10;28.47;;;-0.80;99.90;;;;;;4987567;28;20648;-58
2022/01/16 04:03:45;;;;;;;62.00;28.77;;;-0.80;99.90;;;;;;4987806;28;20190;-59
2022/01/16 04:06:12;;;;;;;62.30;28.97;;;-0.90;99.90;;;;;;4988690;28;20834;-59
2022/01/16 04:08:37;;;;;;;59.20;26.77;;;-0.90;99.90;;;;;;4988257;28;20549;-58
2022/01/16 04:11:04;;;;;;;67.13;28.13;;;-0.90;99.90;;;;;;4987272;28;20552;-59
2022/01/16 04:13:31;;;;;;;60.03;28.73;;;-0.90;99.90;;;;;;4989244;28;20207;-59
2022/01/16 04:15:57;;;;;;;63.07;29.23;;;-0.80;99.90;;;;;;4986659;28;20425;-59
2022/01/16 04:18:23;;;;;;;63.27;27.97;;;-0.90;99.90;;;;;;4988216;28;20450;-59
2022/01/16 04:20:49;;;;;;;57.77;27.00;;;-0.90;99.90;;;;;;4988058;28;20491;-59
2022/01/16 04:23:15;;;;;;;62.53;27.27;;;-0.90;99.90;;;;;;4987620;28;20445;-60
2022/01/16 04:25:40;;;;;;;65.93;27.93;;;-0.90;99.90;;;;;;4978465;28;20225;-59
2022/01/16 04:28:06;;;;;;;60.57;28.10;;;-0.90;99.90;;;;;;4985932;28;20784;-59
2022/01/16 04:30:33;;;;;;;59.50;28.63;;;-0.90;99.90;;;;;;4988869;28;20234;-60
2022/01/16 04:32:58;;;;;;;65.77;30.07;;;-0.90;99.90;;;;;;4987425;28;20242;-59
2022/01/16 04:35:24;;;;;;;60.73;26.60;;;-0.90;99.90;;;;;;4988017;28;20974;-59
2022/01/16 04:37:50;;;;;;;58.90;27.77;;;-0.90;99.90;;;;;;4988169;28;20302;-59
2022/01/16 04:40:16;;;;;;;59.30;28.87;;;-1.00;99.90;;;;;;4987163;28;20194;-59
2022/01/16 04:45:26;;;;;;;54.33;25.47;;;-1.00;99.90;;;;;;4986728;28;20447;-59
2022/01/16 04:47:53;;;;;;;54.20;25.47;;;-1.00;99.90;;;;;;4988924;28;20449;-59
2022/01/16 04:50:21;;;;;;;52.00;27.27;;;-1.10;99.90;;;;;;4989192;28;20454;-57
2022/01/16 04:52:48;;;;;;;50.93;25.30;;;-1.10;99.90;;;;;;4993490;28;20437;-58
2022/01/16 04:55:15;;;;;;;52.70;24.37;;;-1.10;99.90;;;;;;4991254;28;20489;-58
2022/01/16 04:57:41;;;;;;;52.40;23.63;;;-1.20;99.90;;;;;;4986879;28;20503;-58
2022/01/16 05:00:14;;;;;;;57.23;25.47;;;-1.20;99.90;;;;;;4990625;28;20469;-56
2022/01/16 05:02:40;;;;;;;50.67;25.10;;;-1.20;99.90;;;;;;4989858;28;20430;-58
2022/01/16 05:05:07;;;;;;;54.00;25.43;;;-1.30;99.90;;;;;;4990734;28;20882;-58
2022/01/16 05:07:33;;;;;;;52.70;26.17;;;-1.30;99.90;;;;;;4989281;28;20989;-58
2022/01/16 05:09:59;;;;;;;54.83;25.83;;;-1.30;99.90;;;;;;4991158;28;20488;-58
2022/01/16 05:12:34;;;;;;;59.10;26.07;;;-1.40;99.90;;;;;;4989915;28;20183;-57
2022/01/16 05:17:45;;;;;;;47.97;24.83;;;-1.50;99.90;;;;;;4988248;28;20977;-59
2022/01/16 05:20:11;;;;;;;52.77;25.73;;;-1.50;99.90;;;;;;4982500;28;20436;-58
2022/01/16 05:22:37;;;;;;;44.03;22.63;;;-1.50;99.90;;;;;;4991661;28;20301;-58
2022/01/16 05:25:08;;;;;;;53.73;24.53;;;-1.60;99.90;;;;;;4992098;28;21002;-58
2022/01/16 05:27:35;;;;;;;51.53;23.40;;;-1.60;99.90;;;;;;4987787;28;20206;-56
2022/01/16 05:30:01;;;;;;;48.87;23.30;;;-1.60;99.90;;;;;;4991351;28;20494;-58
2022/01/16 05:32:26;;;;;;;53.37;24.33;;;-1.70;99.90;;;;;;4991551;28;20422;-59
2022/01/16 05:34:52;;;;;;;46.80;22.10;;;-1.70;99.90;;;;;;4991473;28;21009;-58
2022/01/16 05:37:18;;;;;;;50.47;23.23;;;-1.60;99.90;;;;;;4990386;28;20202;-59
2022/01/16 05:39:45;;;;;;;52.10;25.20;;;-1.60;99.90;;;;;;4988568;28;20523;-58
2022/01/16 05:42:12;;;;;;;51.17;22.80;;;-1.60;99.90;;;;;;4989628;28;20879;-59
2022/01/16 05:44:39;;;;;;;52.53;24.07;;;-1.70;99.90;;;;;;4990608;28;20440;-58
2022/01/16 05:47:05;;;;;;;54.93;24.97;;;-1.70;99.90;;;;;;4989232;28;21092;-58
2022/01/16 05:49:31;;;;;;;44.30;22.57;;;-1.70;99.90;;;;;;4989139;28;20457;-58
2022/01/16 05:51:57;;;;;;;45.93;24.63;;;-1.70;99.90;;;;;;4990678;28;20448;-59
2022/01/16 05:54:22;;;;;;;47.13;22.43;;;-1.80;99.90;;;;;;4991221;28;20173;-59
2022/01/16 05:56:48;;;;;;;48.03;22.63;;;-1.90;99.90;;;;;;4989348;28;20207;-58
2022/01/16 05:59:14;;;;;;;45.93;22.30;;;-1.90;99.90;;;;;;4991064;28;20186;-58
2022/01/16 06:01:39;;;;;;;45.83;23.10;;;-1.90;99.90;;;;;;4983754;28;20174;-58
2022/01/16 06:04:05;;;;;;;48.33;22.90;;;-1.90;99.90;;;;;;4980672;28;20188;-58
2022/01/16 06:06:31;;;;;;;44.80;22.10;;;-1.90;99.90;;;;;;4979550;28;20180;-59
2022/01/16 06:08:56;;;;;;;46.67;21.87;;;-1.80;99.90;;;;;;4990253;28;20172;-58
2022/01/16 06:11:22;;;;;;;47.90;21.70;;;-1.80;99.90;;;;;;4988860;28;20206;-58
2022/01/16 06:13:48;;;;;;;49.83;22.77;;;-1.80;99.90;;;;;;4987682;28;20179;-57
2022/01/16 06:16:14;;;;;;;47.47;22.30;;;-1.80;99.90;;;;;;4988552;28;20272;-58
2022/01/16 06:18:40;;;;;;;47.80;21.93;;;-1.70;99.90;;;;;;4989010;28;20541;-57
2022/01/16 06:21:05;;;;;;;44.80;21.97;;;-1.70;99.90;;;;;;4986883;28;20241;-59
2022/01/16 06:23:31;;;;;;;47.00;23.13;;;-1.80;99.90;;;;;;4992031;28;20225;-58
2022/01/16 06:25:57;;;;;;;44.13;21.53;;;-1.80;99.90;;;;;;4989126;28;20190;-58
2022/01/16 06:28:23;;;;;;;48.90;22.30;;;-1.90;99.90;;;;;;4981970;28;20228;-58
2022/01/16 06:30:49;;;;;;;44.10;22.13;;;-2.00;99.90;;;;;;4988244;28;20230;-58
2022/01/16 06:33:15;;;;;;;43.93;22.37;;;-2.00;99.90;;;;;;4990132;28;20451;-58
2022/01/16 06:35:41;;;;;;;46.67;21.80;;;-2.00;99.90;;;;;;4988851;28;20461;-58
2022/01/16 06:38:07;;;;;;;48.77;22.17;;;-2.00;99.90;;;;;;4988433;28;20704;-56
2022/01/16 06:40:33;;;;;;;53.80;21.10;;;-2.00;99.90;;;;;;4984693;28;20529;-58
2022/01/16 06:42:59;;;;;;;49.83;23.10;;;-2.00;99.90;;;;;;4991200;28;20183;-58
2022/01/16 06:45:25;;;;;;;40.20;20.67;;;-2.10;99.90;;;;;;4989948;28;20925;-57
2022/01/16 06:47:51;;;;;;;48.17;22.20;;;-2.10;99.90;;;;;;4985657;28;20202;-58
2022/01/16 06:50:18;;;;;;;40.83;19.70;;;-2.10;99.90;;;;;;4985649;28;22070;-58
2022/01/16 06:52:44;;;;;;;47.47;21.70;;;-2.10;99.90;;;;;;4990008;28;20184;-58
2022/01/16 06:55:10;;;;;;;47.17;21.83;;;-2.20;99.90;;;;;;4990100;28;20482;-58
2022/01/16 06:57:35;;;;;;;48.33;20.80;;;-2.20;99.90;;;;;;4990108;28;20210;-59
2022/01/16 07:00:13;;;;;;;47.77;23.27;;;-2.20;99.90;;;;;;4989749;28;20433;-58
2022/01/16 07:02:39;;;;;;;47.40;23.20;;;-2.20;99.90;;;;;;4990348;28;20195;-58
2022/01/16 07:05:05;;;;;;;44.53;19.30;;;-2.20;99.90;;;;;;4989722;28;20438;-59
2022/01/16 07:07:31;;;;;;;44.30;20.80;;;-2.30;99.90;;;;;;4989805;28;20283;-58
2022/01/16 07:09:57;;;;;;;48.57;22.50;;;-2.30;99.90;;;;;;4990466;28;20541;-58
2022/01/16 07:12:22;;;;;;;41.53;21.10;;;-2.30;99.90;;;;;;4989956;28;21009;-58
2022/01/16 07:14:48;;;;;;;41.47;20.80;;;-2.30;99.90;;;;;;4988447;28;20186;-58
2022/01/16 07:17:14;;;;;;;43.43;20.27;;;-2.30;99.90;;;;;;4983691;28;20231;-60
2022/01/16 07:19:40;;;;;;;44.00;19.03;;;-2.30;99.90;;;;;;4976104;28;20422;-61
2022/01/16 07:22:06;;;;;;;42.60;20.43;;;-2.30;99.90;;;;;;4989035;28;20201;-58
2022/01/16 07:24:31;;;;;;;40.50;20.33;;;-2.30;99.90;;;;;;4989204;28;20630;-58
2022/01/16 07:27:00;;;;;;;46.27;21.80;;;-2.30;99.90;;;;;;4981407;28;20468;-60
2022/01/16 07:29:29;;;;;;;38.13;18.87;;;-2.40;99.90;;;;;;4989348;28;20929;-59
2022/01/16 07:31:56;;;;;;;40.43;20.20;;;-2.40;99.90;;;;;;4989862;28;20438;-59
2022/01/16 07:34:21;;;;;;;39.00;18.70;;;-2.40;99.90;;;;;;4980969;28;20921;-59
2022/01/16 07:36:47;;;;;;;41.93;17.90;;;-2.50;99.90;;;;;;4985735;28;20466;-59
2022/01/16 07:39:13;;;;;;;38.17;19.03;;;-2.50;99.90;;;;;;4988687;28;20208;-58
2022/01/16 07:41:39;;;;;;;36.83;18.87;;;-2.50;99.90;;;;;;4985290;28;20236;-57
2022/01/16 07:44:04;;;;;;;45.13;19.60;;;-2.50;99.90;;;;;;4988633;28;20179;-57
2022/01/16 07:46:30;;;;;;;44.40;21.70;;;-2.50;99.90;;;;;;4988293;28;20185;-57
2022/01/16 07:48:56;;;;;;;42.20;19.60;;;-2.50;99.90;;;;;;4987903;28;20604;-57
2022/01/16 07:51:22;;;;;;;38.43;18.83;;;-2.40;99.90;;;;;;4986668;28;20212;-57
2022/01/16 07:53:48;;;;;;;43.93;19.93;;;-2.40;99.90;;;;;;4988365;28;20629;-56
2022/01/16 07:56:14;;;;;;;45.07;19.60;;;-2.40;99.90;;;;;;4985120;28;20444;-58
2022/01/16 07:58:41;;;;;;;45.07;20.90;;;-2.30;99.90;;;;;;4986715;28;20214;-58
2022/01/16 08:01:07;;;;;;;41.20;18.67;;;-2.30;99.90;;;;;;4986949;28;20199;-55
2022/01/16 08:03:33;;;;;;;41.33;19.93;;;-2.30;99.90;;;;;;4984083;28;20437;-54
2022/01/16 08:05:59;;;;;;;46.93;19.10;;;-2.20;99.90;;;;;;4983142;28;20187;-59
2022/01/16 08:08:25;;;;;;;39.33;19.27;;;-2.20;99.90;;;;;;4981087;28;20786;-58
2022/01/16 08:10:50;;;;;;;42.60;21.20;;;-2.10;99.90;;;;;;4983483;28;20543;-59
2022/01/16 08:13:16;;;;;;;41.97;19.23;;;-2.10;99.90;;;;;;4979721;28;20210;-59
2022/01/16 08:15:43;;;;;;;44.03;21.20;;;-2.00;99.90;;;;;;4981479;28;20218;-59
2022/01/16 08:18:09;;;;;;;37.83;18.20;;;-2.00;99.90;;;;;;4984344;28;21421;-59
2022/01/16 08:20:35;;;;;;;43.37;19.90;;;-2.00;99.90;;;;;;4984638;28;21150;-59
2022/01/16 08:23:01;;;;;;;42.90;20.10;;;-2.00;99.90;;;;;;4984302;28;21650;-59
2022/01/16 08:25:26;;;;;;;45.90;19.17;;;-2.00;99.90;;;;;;4984137;28;20184;-60
2022/01/16 08:27:52;;;;;;;40.83;19.17;;;-1.90;99.90;;;;;;4986229;28;20260;-60
2022/01/16 08:30:18;;;;;;;43.20;20.43;;;-1.90;99.90;;;;;;4983003;28;20207;-59
2022/01/16 08:32:44;;;;;;;38.77;18.73;;;-1.90;99.90;;;;;;4986464;28;20175;-59
2022/01/16 08:35:11;;;;;;;37.30;19.40;;;-1.80;99.90;;;;;;4982435;28;20297;-60
2022/01/16 08:37:36;;;;;;;43.27;20.57;;;-1.80;99.90;;;;;;4984452;28;20680;-61
2022/01/16 08:40:04;;;;;;;44.23;19.77;;;-1.80;99.90;;;;;;4984404;28;20447;-57
2022/01/16 08:42:30;;;;;;;42.57;19.13;;;-1.70;99.90;;;;;;4989307;28;20209;-59
2022/01/16 08:44:57;;;;;;;40.30;18.57;;;-1.60;99.90;;;;;;4989522;28;20438;-59
2022/01/16 08:47:22;;;;;;;43.37;19.67;;;-1.60;99.90;;;;;;4991273;28;20468;-60
2022/01/16 08:49:48;;;;;;;42.67;19.90;;;-1.50;99.90;;;;;;4990438;28;20459;-59
2022/01/16 08:52:14;;;;;;;42.00;20.37;;;-1.50;99.90;;;;;;4990643;28;20206;-60
2022/01/16 08:54:40;;;;;;;41.10;19.90;;;-1.40;99.90;;;;;;4991778;28;20207;-61
2022/01/16 08:57:06;;;;;;;36.53;19.60;;;-1.40;99.90;;;;;;4985973;28;21084;-60
2022/01/16 08:59:32;;;;;;;39.93;19.20;;;-1.40;99.90;;;;;;4985918;28;20233;-59
2022/01/16 09:01:58;;;;;;;49.07;20.50;;;-1.30;99.90;;;;;;4981575;28;20487;-61
2022/01/16 09:04:23;;;;;;;46.43;19.73;;;-1.30;99.90;;;;;;4983359;28;20432;-61
2022/01/16 09:06:49;;;;;;;41.90;19.37;;;-1.20;99.90;;;;;;4987425;28;20893;-60
2022/01/16 09:09:15;;;;;;;43.13;20.47;;;-1.10;99.90;;;;;;4987980;28;20183;-59
2022/01/16 09:11:41;;;;;;;33.40;18.90;;;-1.00;99.90;;;;;;4984515;28;20182;-60
2022/01/16 09:14:06;;;;;;;38.40;17.97;;;-1.00;99.90;;;;;;4984080;28;20182;-60
2022/01/16 09:16:33;;;;;;;36.70;19.43;;;-0.90;99.90;;;;;;4985757;28;20179;-60
2022/01/16 09:18:59;;;;;;;38.80;17.57;;;-0.80;99.90;;;;;;4984314;28;20180;-61
2022/01/16 09:21:25;;;;;;;41.43;18.97;;;-0.80;99.90;;;;;;4987991;28;20577;-60
2022/01/16 09:23:51;;;;;;;43.80;20.00;;;-0.80;99.90;;;;;;4986648;28;20535;-60
2022/01/16 09:26:17;;;;;;;43.73;19.37;;;-0.70;99.90;;;;;;4988974;28;20273;-59
2022/01/16 09:28:43;;;;;;;44.93;19.97;;;-0.50;99.90;;;;;;4989207;28;20203;-60
2022/01/16 09:31:10;;;;;;;34.20;17.90;;;-0.50;99.90;;;;;;4985566;28;21049;-58
2022/01/16 09:33:36;;;;;;;39.70;19.63;;;-0.40;99.90;;;;;;4987898;28;20461;-61
2022/01/16 09:36:03;;;;;;;38.97;19.00;;;-0.30;99.90;;;;;;4985227;28;20817;-59
2022/01/16 09:38:29;;;;;;;42.17;18.73;;;-0.20;99.90;;;;;;4983463;28;20493;-59
2022/01/16 09:40:55;;;;;;;45.77;18.00;;;-0.10;99.90;;;;;;4987216;28;20490;-60
2022/01/16 09:43:21;;;;;;;44.13;20.23;;;0.00;99.90;;;;;;4989488;28;20179;-60
2022/01/16 09:45:48;;;;;;;39.37;18.67;;;0.10;99.90;;;;;;4988701;28;20445;-59
2022/01/16 09:48:15;;;;;;;35.83;17.03;;;0.20;99.90;;;;;;4989429;28;20469;-60
2022/01/16 09:50:41;;;;;;;43.27;18.80;;;0.30;99.90;;;;;;4986499;28;20465;-61
2022/01/16 09:53:07;;;;;;;45.80;18.93;;;0.40;99.90;;;;;;4985080;28;20438;-59
2022/01/16 09:55:32;;;;;;;35.53;17.53;;;0.40;99.90;;;;;;4981917;28;20191;-61
2022/01/16 09:57:59;;;;;;;39.63;18.40;;;0.50;99.90;;;;;;4983084;28;20218;-60
2022/01/16 10:00:25;;;;;;;35.40;18.70;;;0.50;99.90;;;;;;4988986;28;20187;-61
2022/01/16 10:02:52;;;;;;;37.90;18.77;;;0.70;99.90;;;;;;4983360;28;20442;-62
2022/01/16 10:05:26;;;;;;;36.00;19.20;;;0.70;99.90;;;;;;4983768;28;20196;-61
2022/01/16 10:07:54;;;;;;;40.73;17.97;;;0.90;99.90;;;;;;4980216;28;20887;-60
2022/01/16 10:10:23;;;;;;;39.83;18.13;;;1.00;99.90;;;;;;4984420;28;20530;-60
2022/01/16 10:12:51;;;;;;;40.30;18.13;;;1.10;99.90;;;;;;4978269;28;20582;-59
2022/01/16 10:15:27;;;;;;;40.97;18.80;;;1.20;99.90;;;;;;4981625;28;20980;-62
2022/01/16 10:17:58;;;;;;;35.73;17.77;;;1.20;99.90;;;;;;4984299;28;20451;-61
2022/01/16 10:20:26;;;;;;;31.00;15.87;;;1.40;99.90;;;;;;4981443;28;20469;-60
2022/01/16 10:22:55;;;;;;;35.60;18.50;;;1.50;99.90;;;;;;4982781;28;20993;-61
2022/01/16 10:25:41;;;;;;;35.80;16.70;;;1.60;99.90;;;;;;4978580;28;20441;-61
2022/01/16 10:28:22;;;;;;;35.87;18.00;;;1.70;99.90;;;;;;4981538;28;20466;-61
2022/01/16 10:30:56;;;;;;;33.23;15.40;;;1.80;99.90;;;;;;4983957;28;20473;-61
2022/01/16 10:33:24;;;;;;;33.73;15.97;;;1.90;99.90;;;;;;4985546;28;20441;-61
2022/01/16 10:35:51;;;;;;;28.37;15.77;;;2.00;99.90;;;;;;4987136;28;20509;-59
2022/01/16 10:38:22;;;;;;;34.87;16.70;;;2.20;99.20;;;;;;4981078;28;20565;-60
2022/01/16 10:40:50;;;;;;;34.87;16.40;;;2.30;98.40;;;;;;4977751;28;20450;-61
2022/01/16 10:43:21;;;;;;;28.90;16.17;;;2.40;97.30;;;;;;4982312;28;20443;-61
2022/01/16 10:45:51;;;;;;;35.90;18.13;;;2.50;96.30;;;;;;4984572;28;20442;-60
2022/01/16 10:48:23;;;;;;;35.03;16.93;;;2.60;96.20;;;;;;4985656;28;20466;-61
2022/01/16 10:50:51;;;;;;;34.90;16.90;;;2.60;96.10;;;;;;4980924;28;20466;-61
2022/01/16 10:53:22;;;;;;;32.90;15.73;;;2.70;96.20;;;;;;4980261;28;20844;-61
2022/01/16 10:55:53;;;;;;;29.40;14.40;;;2.90;95.20;;;;;;4986540;28;21054;-62
2022/01/16 10:58:27;;;;;;;31.47;16.07;;;3.00;93.80;;;;;;4982762;28;20557;-61
2022/01/16 11:01:13;;;;;;;32.87;16.00;;;3.10;93.20;;;;;;4984037;28;21122;-61
2022/01/16 11:03:42;;;;;;;33.20;16.97;;;3.10;93.20;;;;;;4981398;28;20434;-61
2022/01/16 11:06:07;;;;;;;35.23;16.93;;;3.20;92.30;;;;;;4981938;28;20540;-60
2022/01/16 11:08:34;;;;;;;34.10;16.53;;;3.30;91.40;;;;;;4983628;28;20466;-61
2022/01/16 11:11:00;;;;;;;33.67;16.30;;;3.40;91.40;;;;;;4985040;28;20488;-62
2022/01/16 11:13:30;;;;;;;34.63;15.63;;;3.50;91.40;;;;;;4986370;28;20841;-61
2022/01/16 11:16:04;;;;;;;26.23;14.10;;;3.70;91.20;;;;;;4978283;28;20626;-61
2022/01/16 11:18:31;;;;;;;31.13;16.00;;;3.80;89.40;;;;;;4974454;28;20950;-60
2022/01/16 11:23:47;;;;;;;26.53;14.50;;;4.00;86.10;;;;;;4973812;28;20454;-60
2022/01/16 11:26:14;;;;;;;28.87;15.27;;;4.20;90.30;;;;;;4982455;28;20498;-60
2022/01/16 11:28:41;;;;;;;33.57;15.70;;;4.30;85.80;;;;;;4984211;28;20514;-61
2022/01/16 11:31:09;;;;;;;28.40;14.10;;;4.40;88.60;;;;;;4984779;28;20471;-59
2022/01/16 11:33:37;;;;;;;31.13;15.57;;;4.60;87.50;;;;;;4979618;28;20468;-59
2022/01/16 11:36:11;;;;;;;30.83;15.10;;;4.70;83.50;;;;;;4988429;28;20541;-61
2022/01/16 11:39:00;;;;;;;25.17;14.27;;;4.80;82.80;;;;;;4987078;28;20864;-62
2022/01/16 11:41:40;;;;;;;27.60;14.50;;;4.90;79.60;;;;;;4986761;28;20432;-62
2022/01/16 11:44:26;;;;;;;27.93;15.07;;;5.00;79.30;;;;;;4979757;28;20444;-61
2022/01/16 11:46:55;;;;;;;27.80;14.57;;;5.10;77.10;;;;;;4981470;28;20459;-61
2022/01/16 11:49:34;;;;;;;27.07;15.60;;;5.10;75.70;;;;;;4982780;28;20439;-60
2022/01/16 11:52:11;;;;;;;30.30;15.43;;;5.10;75.90;;;;;;4979951;28;20443;-56
2022/01/16 11:54:45;;;;;;;31.77;15.13;;;5.20;77.00;;;;;;4980901;28;20440;-60
2022/01/16 11:57:18;;;;;;;28.37;13.63;;;5.20;75.70;;;;;;4982795;28;20528;-61
2022/01/16 11:59:44;;;;;;;24.83;13.57;;;5.20;76.10;;;;;;4985192;28;20435;-58
2022/01/16 12:02:10;;;;;;;27.10;14.57;;;5.10;76.00;;;;;;4989909;28;20444;-61
2022/01/16 12:04:38;;;;;;;29.70;14.33;;;5.10;77.20;;;;;;4992512;28;20427;-60
2022/01/16 12:07:13;;;;;;;28.27;14.63;;;5.10;77.50;;;;;;4993514;28;20632;-62
2022/01/16 12:12:12;;;;;;;24.20;13.57;;;5.00;79.60;;;;;;4992904;28;20644;-61
2022/01/16 12:14:58;;;;;;;25.77;13.83;;;5.00;78.50;;;;;;4990907;28;20968;-61
2022/01/16 12:17:31;;;;;;;23.70;12.67;;;4.90;77.70;;;;;;4993567;28;20459;-61
2022/01/16 12:20:25;;;;;;;28.13;14.03;;;4.70;80.50;;;;;;4988788;28;20438;-61
2022/01/16 12:23:10;;;;;;;27.80;13.80;;;4.50;83.50;;;;;;4991681;28;20432;-60
2022/01/16 12:25:44;;;;;;;27.37;14.73;;;4.30;85.80;;;;;;4992473;28;20439;-61
2022/01/16 12:28:10;;;;;;;30.40;15.13;;;4.20;87.80;;;;;;4987003;28;20475;-60
2022/01/16 12:30:52;;;;;;;27.03;14.17;;;4.10;89.90;;;;;;4988658;28;20460;-61
2022/01/16 12:33:43;;;;;;;23.33;13.27;;;4.00;90.60;;;;;;4994166;28;20175;-60
2022/01/16 12:36:14;;;;;;;34.47;14.40;;;4.00;91.20;;;;;;4989420;28;21115;-59
2022/01/16 12:38:43;;;;;;;30.97;14.50;;;4.00;91.50;;;;;;4991632;28;20458;-59
2022/01/16 12:41:16;;;;;;;26.93;14.07;;;4.00;91.80;;;;;;4991280;28;20448;-59
2022/01/16 12:43:54;;;;;;;30.57;13.83;;;4.00;92.00;;;;;;4993106;28;20459;-59
2022/01/16 12:46:31;;;;;;;25.83;14.00;;;4.00;91.80;;;;;;4989088;28;20432;-59
2022/01/16 12:49:01;;;;;;;29.17;13.90;;;4.00;91.40;;;;;;4975469;28;20441;-61
2022/01/16 12:51:29;;;;;;;24.03;12.53;;;4.00;91.20;;;;;;4983073;28;20847;-59
2022/01/16 12:54:03;;;;;;;30.83;14.80;;;4.00;90.80;;;;;;4985878;28;20459;-61
2022/01/16 12:56:47;;;;;;;24.10;13.30;;;4.10;90.90;;;;;;4983397;28;20437;-61
2022/01/16 12:59:18;;;;;;;30.47;14.63;;;4.10;90.60;;;;;;4987282;28;20436;-59
2022/01/16 13:01:57;;;;;;;22.97;13.10;;;4.10;90.20;;;;;;4991395;28;20814;-61
2022/01/16 13:04:29;;;;;;;27.30;14.37;;;4.10;90.10;;;;;;5016013;23;20451;-63
2022/01/16 13:07:12;;;;;;;25.70;14.10;;;4.10;90.10;;;;;;4988998;28;20478;-57
2022/01/16 13:09:39;;;;;;;26.20;13.20;;;4.10;90.20;;;;;;4988217;28;21072;-54
2022/01/16 13:12:07;;;;;;;24.10;13.63;;;4.10;90.20;;;;;;4984814;28;20472;-56
2022/01/16 13:14:39;;;;;;;24.13;13.63;;;4.20;89.40;;;;;;4986966;28;20529;-56
2022/01/16 13:17:08;;;;;;;28.37;13.80;;;4.20;89.80;;;;;;4988194;28;20464;-56